| time (UTC) | temp F | wind direction | speed MPH | gust MPH | rain 1hr in | rain 24hr in | rain mn in | humidity % | barometer mb |
| 20260502170519 | 52 | 0 | 0.0 | 1.0 | 0.06 | 0.14 | 0.14 | 92 | 1013.6 |
| 20260502164015 | 52 | 0 | 0.0 | 1.0 | 0.06 | 0.11 | 0.11 | 92 | 1013.6 |
| 20260502163515 | 52 | 0 | 0.0 | 0.0 | 0.06 | 0.11 | 0.11 | 92 | 1013.6 |
| 20260502163041 | 52 | 0 | 0.0 | 1.0 | 0.06 | 0.10 | 0.10 | 92 | 1013.7 |
| 20260502162515 | 52 | 0 | 0.0 | 2.0 | 0.06 | 0.09 | 0.09 | 91 | 1013.7 |
| 20260502162015 | 52 | 0 | 0.0 | 3.0 | 0.05 | 0.08 | 0.08 | 91 | 1013.7 |
| 20260502161554 | 52 | 352 | 1.0 | 3.0 | 0.06 | 0.08 | 0.08 | 91 | 1013.8 |
| 20260502161021 | 52 | 0 | 0.0 | 3.0 | 0.05 | 0.07 | 0.07 | 91 | 1013.7 |
| 20260502160515 | 53 | 304 | 0.0 | 3.0 | 0.06 | 0.07 | 0.07 | 91 | 1013.8 |
| 20260502152015 | 53 | 0 | 0.0 | 0.0 | 0.03 | 0.03 | 0.03 | 90 | 1014.1 |
| 20260502151531 | 54 | 328 | 0.0 | 0.0 | 0.02 | 0.02 | 0.02 | 91 | 1014.1 |
| 20260502151015 | 54 | 0 | 0.0 | 1.0 | 0.02 | 0.02 | 0.02 | 91 | 1014.2 |
| 20260502150518 | 54 | 0 | 0.0 | 1.0 | 0.01 | 0.01 | 0.01 | 90 | 1014.3 |
| 20260502130516 | 58 | 0 | 0.0 | 4.0 | 0.00 | 0.00 | 0.00 | 79 | 1015.1 |
| 20260502123516 | 57 | 314 | 2.0 | 6.0 | 0.00 | 0.00 | 0.00 | 81 | 1015.5 |
| 20260502123106 | 58 | 349 | 4.0 | 7.0 | 0.00 | 0.00 | 0.00 | 80 | 1015.6 |
| 20260502122516 | 58 | 77 | 4.0 | 7.0 | 0.00 | 0.00 | 0.00 | 81 | 1015.7 |
| 20260502122022 | 58 | 164 | 3.0 | 6.0 | 0.00 | 0.00 | 0.00 | 79 | 1015.7 |
| 20260502121532 | 58 | 142 | 1.0 | 4.0 | 0.00 | 0.00 | 0.00 | 79 | 1015.8 |
| 20260502121016 | 58 | 322 | 2.0 | 4.0 | 0.00 | 0.00 | 0.00 | 77 | 1015.8 |
| 20260502120519 | 58 | 317 | 0.0 | 5.0 | 0.00 | 0.00 | 0.00 | 80 | 1015.9 |
| 20260502115520 | 58 | 113 | 1.0 | 5.0 | 0.00 | 0.00 | 0.00 | 81 | 1016.0 |
| 20260502115018 | 57 | 329 | 2.0 | 5.0 | 0.00 | 0.00 | 0.00 | 82 | 1016.1 |
| 20260502114532 | 56 | 338 | 3.0 | 6.0 | 0.00 | 0.00 | 0.00 | 82 | 1016.1 |
| 20260502114015 | 56 | 59 | 4.0 | 7.0 | 0.00 | 0.00 | 0.00 | 81 | 1016.2 |
| 20260502113515 | 56 | 110 | 4.0 | 7.0 | 0.00 | 0.00 | 0.00 | 82 | 1016.2 |
| 20260502113034 | 57 | 93 | 3.0 | 7.0 | 0.00 | 0.00 | 0.00 | 82 | 1016.4 |
| 20260502112515 | 57 | 175 | 2.0 | 6.0 | 0.00 | 0.00 | 0.00 | 82 | 1016.5 |
| 20260502112016 | 57 | 89 | 3.0 | 8.0 | 0.00 | 0.00 | 0.00 | 82 | 1016.6 |
| 20260502111533 | 57 | 273 | 4.0 | 8.0 | 0.00 | 0.00 | 0.00 | 81 | 1016.7 |
| 20260502111021 | 57 | 297 | 0.0 | 9.0 | 0.00 | 0.00 | 0.00 | 84 | 1016.8 |
| 20260502110519 | 56 | 54 | 4.0 | 9.0 | 0.00 | 0.00 | 0.00 | 83 | 1016.8 |
| 20260502110045 | 56 | 57 | 5.0 | 9.0 | 0.00 | 0.00 | 0.00 | 83 | 1017.0 |
| 20260502105517 | 55 | 105 | 5.0 | 8.0 | 0.00 | 0.00 | 0.00 | 83 | 1017.1 |
| 20260502105018 | 55 | 106 | 4.0 | 8.0 | 0.00 | 0.00 | 0.00 | 85 | 1017.3 |
| 20260502104535 | 55 | 122 | 5.0 | 9.0 | 0.00 | 0.00 | 0.00 | 85 | 1017.3 |
| 20260502104015 | 55 | 114 | 5.0 | 9.0 | 0.00 | 0.00 | 0.00 | 84 | 1017.4 |
| 20260502103515 | 54 | 148 | 3.0 | 8.0 | 0.00 | 0.00 | 0.00 | 84 | 1017.3 |
| 20260502103034 | 54 | 67 | 3.0 | 7.0 | 0.00 | 0.00 | 0.00 | 84 | 1017.4 |
| 20260502102515 | 54 | 121 | 4.0 | 7.0 | 0.00 | 0.00 | 0.00 | 84 | 1017.3 |
| 20260502102026 | 54 | 316 | 3.0 | 7.0 | 0.00 | 0.00 | 0.00 | 85 | 1017.3 |
| 20260502101531 | 54 | 316 | 3.0 | 7.0 | 0.00 | 0.00 | 0.00 | 84 | 1017.4 |
| 20260502101020 | 54 | 117 | 4.0 | 8.0 | 0.00 | 0.00 | 0.00 | 84 | 1017.3 |
| 20260502100516 | 54 | 350 | 4.0 | 8.0 | 0.00 | 0.00 | 0.00 | 85 | 1017.2 |
| 20260502091016 | 55 | 155 | 4.0 | 9.0 | 0.00 | 0.00 | 0.00 | 84 | 1017.7 |
| 20260502090516 | 55 | 349 | 3.0 | 7.0 | 0.00 | 0.00 | 0.00 | 86 | 1017.6 |
| 20260502071535 | 51 | 51 | 3.0 | 6.0 | 0.00 | 0.00 | 0.00 | 93 | 1018.1 |
| 20260502071019 | 51 | 302 | 3.0 | 7.0 | 0.00 | 0.00 | 0.00 | 93 | 1018.0 |
| 20260502070518 | 51 | 103 | 3.0 | 7.0 | 0.00 | 0.00 | 0.00 | 93 | 1018.1 |
| 20260502070035 | 51 | 305 | 2.0 | 7.0 | 0.00 | 0.00 | 0.00 | 93 | 1018.0 |
| 20260502065518 | 51 | 313 | 1.0 | 5.0 | 0.00 | 0.00 | 0.00 | 93 | 1018.0 |
| 20260502065016 | 51 | 219 | 2.0 | 6.0 | 0.00 | 0.00 | 0.00 | 93 | 1018.0 |
| 20260502064535 | 51 | 287 | 2.0 | 6.0 | 0.00 | 0.00 | 0.00 | 93 | 1018.0 |
| 20260502064015 | 51 | 17 | 2.0 | 4.0 | 0.00 | 0.00 | 0.00 | 93 | 1017.9 |
| 20260502063519 | 51 | 352 | 1.0 | 3.0 | 0.00 | 0.00 | 0.00 | 93 | 1017.9 |
| 20260502063039 | 51 | 335 | 0.0 | 1.0 | 0.00 | 0.00 | 0.00 | 93 | 1017.9 |
| 20260502062515 | 51 | 329 | 0.0 | 1.0 | 0.00 | 0.00 | 0.00 | 93 | 1018.0 |
| 20260502062016 | 51 | 0 | 0.0 | 1.0 | 0.00 | 0.00 | 0.00 | 93 | 1018.1 |
| 20260502061530 | 50 | 0 | 0.0 | 2.0 | 0.00 | 0.00 | 0.00 | 93 | 1018.1 |
| 20260502061015 | 50 | 0 | 0.0 | 2.0 | 0.00 | 0.00 | 0.00 | 93 | 1018.1 |
| 20260502060515 | 51 | 326 | 0.0 | 3.0 | 0.00 | 0.00 | 0.00 | 93 | 1018.1 |
| 20260502060037 | 51 | 0 | 0.0 | 3.0 | 0.00 | 0.00 | 0.00 | 94 | 1018.2 |
| 20260502055516 | 51 | 316 | 0.0 | 3.0 | 0.00 | 0.00 | 0.00 | 94 | 1018.3 |
| 20260502055016 | 51 | 316 | 1.0 | 4.0 | 0.00 | 0.00 | 0.00 | 94 | 1018.3 |
| 20260502054535 | 50 | 285 | 1.0 | 6.0 | 0.00 | 0.00 | 0.00 | 94 | 1018.3 |
| 20260502054017 | 50 | 231 | 1.0 | 6.0 | 0.00 | 0.00 | 0.00 | 94 | 1018.4 |
| 20260502053516 | 50 | 0 | 2.0 | 6.0 | 0.00 | 0.00 | 0.00 | 94 | 1018.4 |
| 20260502053035 | 50 | 314 | 2.0 | 6.0 | 0.00 | 0.00 | 0.00 | 94 | 1018.4 |
| 20260502052517 | 50 | 328 | 2.0 | 4.0 | 0.00 | 0.00 | 0.00 | 94 | 1018.3 |
| 20260502052015 | 50 | 300 | 2.0 | 4.0 | 0.00 | 0.00 | 0.00 | 94 | 1018.3 |
| 20260502051535 | 50 | 323 | 2.0 | 7.0 | 0.00 | 0.00 | 0.00 | 94 | 1018.3 |
| 20260502051015 | 50 | 351 | 2.0 | 7.0 | 0.00 | 0.00 | 0.00 | 94 | 1018.3 |
| 20260502050516 | 50 | 301 | 1.0 | 5.0 | 0.00 | 0.00 | 0.00 | 94 | 1018.3 |
| 20260502050036 | 50 | 296 | 1.0 | 4.0 | 0.00 | 0.00 | 0.00 | 94 | 1018.3 |
| 20260502045520 | 50 | 265 | 1.0 | 3.0 | 0.00 | 0.00 | 0.00 | 94 | 1018.3 |
| 20260502045016 | 50 | 293 | 1.0 | 3.0 | 0.00 | 0.00 | 0.00 | 94 | 1018.3 |
| 20260502044536 | 50 | 303 | 0.0 | 1.0 | 0.00 | 0.00 | 0.00 | 94 | 1018.3 |
| 20260502044015 | 50 | 328 | 0.0 | 0.0 | 0.00 | 0.00 | 0.00 | 93 | 1018.3 |
| 20260502043515 | 50 | 0 | 0.0 | 3.0 | 0.00 | 0.00 | 0.00 | 93 | 1018.3 |
| 20260502043032 | 50 | 0 | 0.0 | 3.0 | 0.00 | 0.00 | 0.00 | 94 | 1018.3 |
| 20260502042516 | 50 | 337 | 0.0 | 2.0 | 0.00 | 0.00 | 0.00 | 94 | 1018.3 |
| 20260502042018 | 50 | 0 | 0.0 | 0.0 | 0.00 | 0.00 | 0.00 | 93 | 1018.3 |
| 20260502041534 | 50 | 0 | 0.0 | 0.0 | 0.00 | 0.00 | 0.00 | 94 | 1018.3 |
| 20260502041017 | 50 | 0 | 0.0 | 0.0 | 0.00 | 0.00 | 0.00 | 93 | 1018.3 |
| 20260502040515 | 50 | 0 | 0.0 | 0.0 | 0.00 | 0.00 | 0.00 | 94 | 1018.4 |
| 20260502040035 | 50 | 0 | 0.0 | 0.0 | 0.00 | 0.00 | 0.00 | 93 | 1018.4 |
| 20260502035515 | 50 | 0 | 0.0 | 0.0 | 0.00 | 0.00 | 0.00 | 93 | 1018.4 |
| 20260502035015 | 50 | 0 | 0.0 | 0.0 | 0.00 | 0.00 | 0.00 | 93 | 1018.4 |
| 20260502034530 | 50 | 0 | 0.0 | 0.0 | 0.00 | 0.00 | 0.00 | 93 | 1018.4 |
| 20260502034016 | 50 | 0 | 0.0 | 0.0 | 0.00 | 0.00 | 0.00 | 93 | 1018.4 |
| 20260502033515 | 50 | 0 | 0.0 | 0.0 | 0.00 | 0.00 | 0.00 | 93 | 1018.5 |
| 20260502033035 | 50 | 0 | 0.0 | 0.0 | 0.00 | 0.00 | 0.00 | 93 | 1018.6 |
| 20260502032516 | 50 | 0 | 0.0 | 0.0 | 0.00 | 0.00 | 0.00 | 93 | 1018.7 |
| 20260502032016 | 50 | 0 | 0.0 | 0.0 | 0.00 | 0.00 | 0.00 | 93 | 1018.6 |
| 20260502031534 | 50 | 0 | 0.0 | 0.0 | 0.00 | 0.00 | 0.00 | 93 | 1018.7 |
| 20260502031016 | 50 | 0 | 0.0 | 0.0 | 0.00 | 0.00 | 0.00 | 93 | 1018.8 |
| 20260502030515 | 50 | 0 | 0.0 | 0.0 | 0.00 | 0.00 | 0.00 | 93 | 1018.9 |
| 20260502030033 | 50 | 0 | 0.0 | 0.0 | 0.00 | 0.00 | 0.00 | 93 | 1018.9 |
| 20260502025515 | 50 | 0 | 0.0 | 1.0 | 0.00 | 0.00 | 0.00 | 93 | 1018.9 |
| 20260502025015 | 50 | 0 | 0.0 | 1.0 | 0.00 | 0.00 | 0.00 | 93 | 1019.0 |
| 20260502024531 | 50 | 0 | 0.0 | 1.0 | 0.00 | 0.00 | 0.00 | 93 | 1019.1 |
| 20260502024015 | 51 | 0 | 0.0 | 1.0 | 0.00 | 0.00 | 0.00 | 93 | 1019.1 |
| 20260502023515 | 51 | 0 | 0.0 | 1.0 | 0.00 | 0.00 | 0.00 | 93 | 1019.2 |
| 20260502023030 | 51 | 0 | 0.0 | 0.0 | 0.00 | 0.00 | 0.00 | 93 | 1019.2 |
| 20260502022517 | 50 | 0 | 0.0 | 1.0 | 0.00 | 0.00 | 0.00 | 93 | 1019.3 |
| 20260502022015 | 50 | 0 | 0.0 | 1.0 | 0.00 | 0.00 | 0.00 | 93 | 1019.3 |
| 20260502021536 | 50 | 0 | 0.0 | 1.0 | 0.00 | 0.00 | 0.00 | 93 | 1019.3 |
| 20260502021016 | 50 | 0 | 0.0 | 0.0 | 0.00 | 0.00 | 0.00 | 93 | 1019.4 |
| 20260502020517 | 50 | 0 | 0.0 | 1.0 | 0.00 | 0.00 | 0.00 | 93 | 1019.5 |
| 20260502020034 | 50 | 0 | 0.0 | 1.0 | 0.00 | 0.00 | 0.00 | 93 | 1019.5 |
| 20260502015516 | 50 | 0 | 0.0 | 1.0 | 0.00 | 0.00 | 0.00 | 93 | 1019.6 |
| 20260502015016 | 50 | 0 | 0.0 | 1.0 | 0.00 | 0.00 | 0.00 | 93 | 1019.6 |
| 20260502014535 | 50 | 0 | 0.0 | 1.0 | 0.00 | 0.00 | 0.00 | 93 | 1019.6 |
| 20260502014015 | 50 | 0 | 0.0 | 0.0 | 0.00 | 0.00 | 0.00 | 93 | 1019.6 |
| 20260502013515 | 50 | 0 | 0.0 | 0.0 | 0.00 | 0.00 | 0.00 | 93 | 1019.7 |
| 20260502013031 | 50 | 0 | 0.0 | 0.0 | 0.00 | 0.00 | 0.00 | 93 | 1019.8 |
| 20260502012517 | 50 | 0 | 0.0 | 0.0 | 0.00 | 0.00 | 0.00 | 93 | 1019.9 |
| 20260502012019 | 50 | 0 | 0.0 | 0.0 | 0.00 | 0.00 | 0.00 | 93 | 1019.9 |
| 20260502011531 | 50 | 0 | 0.0 | 1.0 | 0.00 | 0.00 | 0.00 | 93 | 1020.0 |
| 20260502011016 | 50 | 0 | 0.0 | 1.0 | 0.00 | 0.00 | 0.00 | 93 | 1020.0 |
| 20260502010515 | 50 | 0 | 0.0 | 0.0 | 0.00 | 0.00 | 0.00 | 93 | 1020.0 |
| 20260502010047 | 50 | 0 | 0.0 | 0.0 | 0.00 | 0.00 | 0.00 | 93 | 1020.0 |
| 20260502005515 | 50 | 0 | 0.0 | 0.0 | 0.00 | 0.00 | 0.00 | 93 | 1020.1 |
| 20260502005015 | 50 | 0 | 0.0 | 1.0 | 0.00 | 0.00 | 0.00 | 93 | 1020.1 |
| 20260502004547 | 50 | 0 | 0.0 | 1.0 | 0.00 | 0.00 | 0.00 | 93 | 1020.2 |
| 20260502004015 | 50 | 0 | 0.0 | 1.0 | 0.00 | 0.00 | 0.00 | 93 | 1020.2 |
| 20260502003516 | 50 | 0 | 0.0 | 1.0 | 0.00 | 0.00 | 0.00 | 93 | 1020.2 |
| 20260502003031 | 50 | 0 | 0.0 | 1.0 | 0.00 | 0.00 | 0.00 | 93 | 1020.2 |
| 20260502002515 | 50 | 0 | 0.0 | 0.0 | 0.00 | 0.00 | 0.00 | 93 | 1020.2 |
| 20260502002016 | 50 | 0 | 0.0 | 0.0 | 0.00 | 0.00 | 0.00 | 93 | 1020.3 |
| 20260502001537 | 49 | 0 | 0.0 | 0.0 | 0.00 | 0.00 | 0.00 | 93 | 1020.4 |
| 20260502001016 | 49 | 0 | 0.0 | 0.0 | 0.00 | 0.00 | 0.00 | 93 | 1020.4 |
| 20260502000515 | 49 | 0 | 0.0 | 0.0 | 0.00 | 0.00 | 0.00 | 92 | 1020.4 |
| 20260502000035 | 50 | 0 | 0.0 | 0.0 | 0.00 | 0.00 | 0.00 | 93 | 1020.4 |
| 20260501235518 | 50 | 0 | 0.0 | 0.0 | 0.00 | 0.00 | 0.00 | 93 | 1020.5 |
| 20260501235017 | 49 | 0 | 0.0 | 0.0 | 0.00 | 0.00 | 0.00 | 93 | 1020.5 |
| 20260501234535 | 49 | 0 | 0.0 | 0.0 | 0.00 | 0.00 | 0.00 | 93 | 1020.5 |
| 20260501234020 | 49 | 0 | 0.0 | 0.0 | 0.00 | 0.00 | 0.00 | 93 | 1020.5 |
| 20260501233515 | 49 | 0 | 0.0 | 0.0 | 0.00 | 0.00 | 0.00 | 93 | 1020.6 |
| 20260501233032 | 49 | 0 | 0.0 | 0.0 | 0.00 | 0.00 | 0.00 | 93 | 1020.6 |
| 20260501232518 | 48 | 0 | 0.0 | 0.0 | 0.00 | 0.00 | 0.00 | 93 | 1020.6 |
| 20260501232015 | 48 | 0 | 0.0 | 0.0 | 0.00 | 0.00 | 0.00 | 93 | 1020.8 |
| 20260501231532 | 47 | 0 | 0.0 | 0.0 | 0.00 | 0.00 | 0.00 | 91 | 1020.7 |
| 20260501231015 | 47 | 0 | 0.0 | 0.0 | 0.00 | 0.00 | 0.00 | 91 | 1020.7 |
| 20260501230519 | 48 | 0 | 0.0 | 0.0 | 0.00 | 0.00 | 0.00 | 91 | 1020.7 |
| 20260501230031 | 49 | 0 | 0.0 | 0.0 | 0.00 | 0.00 | 0.00 | 92 | 1020.7 |
| 20260501225515 | 49 | 0 | 0.0 | 0.0 | 0.00 | 0.00 | 0.00 | 92 | 1020.7 |
| 20260501225016 | 49 | 0 | 0.0 | 0.0 | 0.00 | 0.00 | 0.00 | 92 | 1020.8 |
| 20260501224533 | 49 | 0 | 0.0 | 0.0 | 0.00 | 0.00 | 0.00 | 91 | 1020.7 |
| 20260501224016 | 50 | 0 | 0.0 | 0.0 | 0.00 | 0.00 | 0.00 | 91 | 1020.8 |
| 20260501223518 | 50 | 0 | 0.0 | 0.0 | 0.00 | 0.00 | 0.00 | 92 | 1020.8 |
| 20260501223030 | 50 | 0 | 0.0 | 1.0 | 0.00 | 0.00 | 0.00 | 92 | 1020.9 |
| 20260501222516 | 51 | 0 | 0.0 | 2.0 | 0.00 | 0.00 | 0.00 | 92 | 1020.8 |
| 20260501222017 | 51 | 0 | 0.0 | 2.0 | 0.00 | 0.00 | 0.00 | 92 | 1020.9 |
| 20260501221533 | 51 | 0 | 0.0 | 1.0 | 0.00 | 0.00 | 0.00 | 92 | 1021.0 |
| 20260501221016 | 51 | 300 | 0.0 | 2.0 | 0.00 | 0.00 | 0.00 | 92 | 1021.0 |
| 20260501220517 | 51 | 0 | 0.0 | 4.0 | 0.00 | 0.00 | 0.00 | 92 | 1021.0 |
| 20260501220037 | 51 | 297 | 1.0 | 4.0 | 0.00 | 0.00 | 0.00 | 92 | 1021.0 |
| 20260501215515 | 51 | 297 | 1.0 | 3.0 | 0.00 | 0.01 | 0.00 | 92 | 1021.0 |
| 20260501215016 | 51 | 302 | 0.0 | 2.0 | 0.00 | 0.01 | 0.00 | 92 | 1021.1 |
| 20260501214532 | 50 | 300 | 0.0 | 2.0 | 0.00 | 0.01 | 0.00 | 92 | 1021.1 |
| 20260501214015 | 50 | 0 | 0.0 | 1.0 | 0.00 | 0.01 | 0.00 | 92 | 1021.1 |
| 20260501213514 | 50 | 307 | 0.0 | 1.0 | 0.00 | 0.01 | 0.00 | 92 | 1021.0 |
| 20260501213045 | 50 | 307 | 0.0 | 1.0 | 0.00 | 0.01 | 0.00 | 92 | 1021.1 |
| 20260501212515 | 50 | 0 | 0.0 | 1.0 | 0.00 | 0.01 | 0.00 | 92 | 1021.1 |
| 20260501212016 | 50 | 0 | 0.0 | 1.0 | 0.00 | 0.01 | 0.00 | 92 | 1021.2 |
| 20260501211530 | 49 | 0 | 0.0 | 0.0 | 0.00 | 0.01 | 0.00 | 92 | 1021.1 |
| 20260501211015 | 49 | 0 | 0.0 | 0.0 | 0.00 | 0.01 | 0.00 | 92 | 1021.1 |
| 20260501210515 | 49 | 0 | 0.0 | 0.0 | 0.00 | 0.01 | 0.00 | 92 | 1021.1 |
| 20260501210040 | 49 | 0 | 0.0 | 0.0 | 0.00 | 0.01 | 0.00 | 92 | 1021.0 |
| 20260501205522 | 49 | 0 | 0.0 | 0.0 | 0.00 | 0.01 | 0.00 | 92 | 1021.1 |
| 20260501205016 | 48 | 0 | 0.0 | 1.0 | 0.00 | 0.01 | 0.00 | 91 | 1021.1 |
| 20260501204536 | 48 | 0 | 0.0 | 1.0 | 0.00 | 0.01 | 0.00 | 91 | 1021.0 |
| 20260501204016 | 48 | 0 | 0.0 | 0.0 | 0.00 | 0.01 | 0.00 | 91 | 1021.0 |
| 20260501203515 | 48 | 0 | 0.0 | 0.0 | 0.00 | 0.01 | 0.00 | 91 | 1021.0 |
| 20260501203030 | 48 | 0 | 0.0 | 0.0 | 0.00 | 0.01 | 0.00 | 91 | 1021.0 |
| 20260501202517 | 48 | 0 | 0.0 | 1.0 | 0.00 | 0.01 | 0.00 | 90 | 1020.9 |
| 20260501202015 | 48 | 0 | 0.0 | 1.0 | 0.00 | 0.01 | 0.00 | 90 | 1020.9 |
| 20260501201533 | 49 | 304 | 0.0 | 1.0 | 0.00 | 0.01 | 0.00 | 90 | 1020.9 |
| 20260501201015 | 49 | 0 | 0.0 | 0.0 | 0.00 | 0.01 | 0.00 | 90 | 1020.9 |
| 20260501200515 | 49 | 0 | 0.0 | 0.0 | 0.00 | 0.01 | 0.00 | 90 | 1020.8 |
| 20260501200035 | 49 | 0 | 0.0 | 1.0 | 0.00 | 0.01 | 0.00 | 90 | 1020.8 |
| 20260501195520 | 50 | 0 | 0.0 | 1.0 | 0.00 | 0.01 | 0.00 | 90 | 1020.9 |
| 20260501195016 | 50 | 0 | 0.0 | 0.0 | 0.00 | 0.01 | 0.00 | 89 | 1020.8 |
| 20260501194537 | 50 | 0 | 0.0 | 0.0 | 0.00 | 0.01 | 0.00 | 89 | 1020.8 |
| 20260501194015 | 50 | 0 | 0.0 | 0.0 | 0.00 | 0.01 | 0.00 | 89 | 1020.8 |
| 20260501193515 | 50 | 0 | 0.0 | 1.0 | 0.00 | 0.01 | 0.00 | 89 | 1020.7 |
| 20260501193033 | 50 | 0 | 0.0 | 1.0 | 0.00 | 0.01 | 0.00 | 89 | 1020.7 |
| 20260501192515 | 51 | 0 | 0.0 | 1.0 | 0.00 | 0.01 | 0.00 | 88 | 1020.7 |
| 20260501192016 | 51 | 0 | 0.0 | 1.0 | 0.00 | 0.01 | 0.00 | 88 | 1020.6 |
| 20260501191532 | 51 | 0 | 0.0 | 1.0 | 0.00 | 0.01 | 0.00 | 88 | 1020.6 |
| 20260501191015 | 51 | 0 | 0.0 | 2.0 | 0.00 | 0.01 | 0.00 | 88 | 1020.6 |
| 20260501190515 | 52 | 301 | 0.0 | 2.0 | 0.00 | 0.01 | 0.00 | 88 | 1020.6 |
| 20260501190036 | 51 | 298 | 0.0 | 2.0 | 0.00 | 0.01 | 0.00 | 88 | 1020.6 |
| 20260501185520 | 51 | 300 | 0.0 | 1.0 | 0.00 | 0.01 | 0.00 | 88 | 1020.6 |
| 20260501185015 | 52 | 301 | 0.0 | 1.0 | 0.00 | 0.01 | 0.00 | 88 | 1020.5 |
| 20260501184530 | 52 | 0 | 0.0 | 2.0 | 0.00 | 0.01 | 0.00 | 87 | 1020.5 |
| 20260501184021 | 52 | 304 | 0.0 | 2.0 | 0.00 | 0.01 | 0.00 | 87 | 1020.6 |
| 20260501183518 | 52 | 303 | 0.0 | 3.0 | 0.00 | 0.01 | 0.00 | 87 | 1020.6 |
| 20260501183032 | 52 | 301 | 1.0 | 3.0 | 0.00 | 0.01 | 0.00 | 87 | 1020.7 |
| 20260501182521 | 52 | 295 | 2.0 | 4.0 | 0.00 | 0.01 | 0.00 | 86 | 1020.7 |
| 20260501182015 | 53 | 300 | 1.0 | 4.0 | 0.00 | 0.01 | 0.00 | 86 | 1020.7 |
| 20260501181539 | 53 | 303 | 2.0 | 4.0 | 0.00 | 0.01 | 0.00 | 86 | 1020.7 |
| 20260501181015 | 53 | 300 | 2.0 | 4.0 | 0.00 | 0.01 | 0.00 | 85 | 1020.6 |
| 20260501180515 | 54 | 295 | 2.0 | 4.0 | 0.00 | 0.01 | 0.00 | 85 | 1020.7 |
| 20260501180045 | 54 | 302 | 1.0 | 4.0 | 0.00 | 0.01 | 0.00 | 86 | 1020.7 |
| 20260501175516 | 53 | 297 | 2.0 | 5.0 | 0.00 | 0.01 | 0.00 | 86 | 1020.8 |
| 20260501175016 | 53 | 300 | 2.0 | 5.0 | 0.00 | 0.01 | 0.00 | 85 | 1020.7 |
| 20260501174537 | 54 | 287 | 2.0 | 4.0 | 0.00 | 0.01 | 0.00 | 85 | 1020.7 |
| 20260501174018 | 54 | 299 | 2.0 | 5.0 | 0.00 | 0.01 | 0.00 | 85 | 1020.7 |
| 20260501173515 | 54 | 300 | 2.0 | 5.0 | 0.00 | 0.01 | 0.00 | 85 | 1020.6 |